Time;durP1;ratioP1;P1;durP2;ratioP2;P2;SDS_P1;SDS_P2;PMS_P1;PMS_P2;Temp;Humidity;BMP_temperature;BMP_pressure;BME280_temperature;BME280_humidity;BME280_pressure;Samples;Min_cycle;Max_cycle;Signal;HPM_P1;HPM_P2
2023/04/26 00:01:57;;;;;;;8.50;7.23;;;11.60;99.90;;;;;;4975450;28;20196;-94
2023/04/26 00:04:24;;;;;;;9.50;7.45;;;11.70;99.90;;;;;;4975027;28;20185;-93
2023/04/26 00:06:49;;;;;;;10.18;8.05;;;11.60;99.90;;;;;;4975380;28;20701;-94
2023/04/26 00:09:17;;;;;;;11.10;7.50;;;11.60;99.90;;;;;;4975178;28;20188;-94
2023/04/26 00:11:43;;;;;;;10.45;7.95;;;11.60;99.90;;;;;;4981259;28;20247;-94
2023/04/26 00:14:09;;;;;;;9.27;7.87;;;11.60;99.90;;;;;;4983171;28;20523;-94
2023/04/26 00:16:34;;;;;;;9.90;8.20;;;11.50;99.90;;;;;;4979099;28;20200;-95
2023/04/26 00:19:01;;;;;;;7.90;7.10;;;11.50;99.90;;;;;;4974813;28;20195;-93
2023/04/26 00:21:27;;;;;;;11.07;7.82;;;11.50;99.90;;;;;;4974967;28;20261;-94
2023/04/26 00:23:53;;;;;;;9.27;8.00;;;11.50;99.90;;;;;;4976450;28;20235;-94
2023/04/26 00:26:20;;;;;;;9.07;7.07;;;11.50;99.90;;;;;;4982059;28;20557;-93
2023/04/26 00:28:45;;;;;;;10.90;8.25;;;11.50;99.90;;;;;;4974920;28;20188;-95
2023/04/26 00:31:15;;;;;;;8.97;7.70;;;11.50;99.90;;;;;;4974587;28;20219;-94
2023/04/26 00:33:41;;;;;;;9.07;6.95;;;11.40;99.90;;;;;;4975269;28;20266;-94
2023/04/26 00:36:07;;;;;;;11.93;8.07;;;11.40;99.90;;;;;;4976712;28;20200;-94
2023/04/26 00:38:32;;;;;;;9.40;6.97;;;11.30;99.90;;;;;;4975911;28;20514;-94
2023/04/26 00:40:58;;;;;;;10.27;7.60;;;11.40;99.90;;;;;;4975252;28;20438;-94
2023/04/26 00:43:24;;;;;;;9.50;7.10;;;11.40;99.90;;;;;;4975104;28;20220;-93
2023/04/26 00:45:50;;;;;;;13.40;7.90;;;11.40;99.90;;;;;;4979158;28;20286;-94
2023/04/26 00:48:17;;;;;;;10.55;8.23;;;11.30;99.90;;;;;;4975035;28;20200;-94
2023/04/26 00:50:43;;;;;;;9.70;8.30;;;11.30;99.90;;;;;;4975060;28;20220;-95
2023/04/26 00:53:09;;;;;;;11.02;7.75;;;11.30;99.90;;;;;;4974618;28;20323;-95
2023/04/26 00:55:35;;;;;;;9.50;7.18;;;11.20;99.90;;;;;;4975013;28;20201;-94
2023/04/26 00:58:01;;;;;;;9.77;7.40;;;11.20;99.90;;;;;;4977807;28;20192;-93
2023/04/26 01:00:28;;;;;;;9.83;7.30;;;11.20;99.90;;;;;;4982709;28;20207;-94
2023/04/26 01:02:54;;;;;;;10.27;7.78;;;11.20;99.90;;;;;;4981628;28;20189;-94
2023/04/26 01:05:20;;;;;;;8.67;6.93;;;11.20;99.90;;;;;;4978548;28;20203;-93
2023/04/26 01:07:46;;;;;;;9.93;8.23;;;11.20;99.90;;;;;;4978525;28;20232;-94
2023/04/26 01:10:11;;;;;;;8.57;7.20;;;11.10;99.90;;;;;;4978553;28;20505;-94
2023/04/26 01:12:38;;;;;;;8.73;7.17;;;11.20;99.90;;;;;;4978585;28;20212;-93
2023/04/26 01:15:04;;;;;;;8.57;6.88;;;11.20;99.90;;;;;;4978267;28;20615;-94
2023/04/26 01:17:30;;;;;;;9.80;7.18;;;11.20;99.90;;;;;;4978175;28;20272;-93
2023/04/26 01:19:58;;;;;;;15.70;7.43;;;11.20;99.90;;;;;;4985604;28;20215;-93
2023/04/26 01:22:24;;;;;;;8.55;6.95;;;11.20;99.90;;;;;;4983128;28;20189;-94
2023/04/26 01:24:51;;;;;;;8.30;7.23;;;11.20;99.90;;;;;;4981809;28;20247;-95
2023/04/26 01:27:17;;;;;;;9.00;7.35;;;11.20;99.90;;;;;;4980443;28;20432;-95
2023/04/26 01:29:43;;;;;;;8.97;6.83;;;11.20;99.90;;;;;;4977827;28;20295;-94
2023/04/26 01:32:08;;;;;;;8.20;6.93;;;11.20;99.90;;;;;;4977942;28;20275;-92
2023/04/26 01:34:35;;;;;;;9.00;7.67;;;11.10;99.90;;;;;;4977925;28;20197;-93
2023/04/26 01:37:01;;;;;;;8.98;7.18;;;11.10;99.90;;;;;;4978167;28;20196;-94
2023/04/26 01:39:28;;;;;;;8.43;6.80;;;11.10;99.90;;;;;;4977907;28;20188;-94
2023/04/26 01:41:57;;;;;;;8.75;6.93;;;11.10;99.90;;;;;;4978740;28;20188;-94
2023/04/26 01:44:23;;;;;;;8.50;6.68;;;11.10;99.90;;;;;;4985184;28;20300;-93
2023/04/26 01:46:48;;;;;;;9.27;7.20;;;11.00;99.90;;;;;;4980462;28;20661;-94
2023/04/26 01:49:14;;;;;;;7.33;6.63;;;11.00;99.90;;;;;;4977848;28;20212;-95
2023/04/26 01:51:40;;;;;;;9.83;6.67;;;11.00;99.90;;;;;;4978814;28;20737;-95
2023/04/26 01:54:06;;;;;;;8.13;6.17;;;11.00;99.90;;;;;;4978234;28;21039;-93
2023/04/26 01:56:32;;;;;;;7.53;6.40;;;11.00;99.90;;;;;;4977873;28;20457;-95
2023/04/26 01:58:58;;;;;;;7.67;6.47;;;11.00;99.90;;;;;;4977593;28;20188;-92
2023/04/26 02:01:24;;;;;;;8.43;6.75;;;11.00;99.90;;;;;;4977248;28;20250;-95
2023/04/26 02:03:50;;;;;;;8.43;6.35;;;11.00;99.90;;;;;;4977942;28;20263;-94
2023/04/26 02:06:15;;;;;;;8.03;6.40;;;10.90;99.90;;;;;;4982081;28;20232;-94
2023/04/26 02:08:41;;;;;;;7.80;7.00;;;10.90;99.90;;;;;;4977593;28;20434;-94
2023/04/26 02:11:07;;;;;;;8.17;7.03;;;10.90;99.90;;;;;;4978083;28;20259;-93
2023/04/26 02:13:33;;;;;;;6.70;5.80;;;10.90;99.90;;;;;;4977444;28;20206;-94
2023/04/26 02:15:59;;;;;;;9.73;7.20;;;11.00;99.90;;;;;;4977281;28;20207;-95
2023/04/26 02:18:24;;;;;;;8.07;6.67;;;11.00;99.90;;;;;;4977209;28;20220;-94
2023/04/26 02:20:50;;;;;;;11.20;6.70;;;11.00;99.90;;;;;;4977317;28;20431;-94
2023/04/26 02:23:16;;;;;;;7.33;6.63;;;11.00;99.90;;;;;;4978277;28;20799;-94
2023/04/26 02:25:45;;;;;;;8.40;7.18;;;11.00;99.90;;;;;;4977309;28;20590;-93
2023/04/26 02:28:11;;;;;;;7.50;6.70;;;11.00;99.90;;;;;;4977093;28;20181;-95
2023/04/26 02:30:37;;;;;;;7.97;6.13;;;11.00;99.90;;;;;;4977133;28;20250;-94
2023/04/26 02:33:03;;;;;;;8.07;6.73;;;11.10;99.90;;;;;;4984522;28;20181;-93
2023/04/26 02:35:29;;;;;;;8.93;7.90;;;11.10;99.90;;;;;;4976787;28;20295;-94
2023/04/26 02:37:55;;;;;;;7.33;6.50;;;11.10;99.90;;;;;;4976953;28;20271;-93
2023/04/26 02:40:21;;;;;;;7.97;6.80;;;11.10;99.90;;;;;;4976986;28;20438;-94
2023/04/26 02:42:48;;;;;;;9.03;7.43;;;11.10;99.90;;;;;;4977065;28;20180;-93
2023/04/26 02:45:13;;;;;;;8.63;7.10;;;11.20;99.90;;;;;;4977836;28;20441;-95
2023/04/26 02:47:39;;;;;;;9.80;7.90;;;11.20;99.90;;;;;;4978226;28;20658;-94
2023/04/26 02:50:07;;;;;;;10.30;7.53;;;11.20;99.90;;;;;;4976478;28;20209;-94
2023/04/26 02:52:36;;;;;;;10.40;8.20;;;11.20;99.90;;;;;;4976658;28;20247;-93
2023/04/26 02:55:05;;;;;;;10.27;8.45;;;11.30;99.90;;;;;;4976263;28;20622;-94
2023/04/26 02:57:31;;;;;;;9.50;7.70;;;11.30;99.90;;;;;;4978719;28;20204;-94
2023/04/26 02:59:58;;;;;;;10.20;8.65;;;11.30;99.90;;;;;;4986430;28;20209;-94
2023/04/26 03:02:23;;;;;;;8.98;7.25;;;11.40;99.90;;;;;;4986102;28;20654;-96
2023/04/26 03:04:49;;;;;;;10.40;9.30;;;11.50;99.90;;;;;;4976460;28;20205;-94
2023/04/26 03:07:16;;;;;;;10.50;8.90;;;11.60;99.90;;;;;;4976498;28;20824;-96
2023/04/26 03:09:42;;;;;;;9.35;8.07;;;11.60;99.90;;;;;;4979381;28;20422;-93
2023/04/26 03:12:08;;;;;;;9.63;8.27;;;11.70;99.90;;;;;;4976314;28;20227;-92
2023/04/26 03:14:34;;;;;;;10.68;8.50;;;11.70;99.90;;;;;;4976276;28;20422;-94
2023/04/26 03:17:00;;;;;;;10.55;8.40;;;11.70;99.90;;;;;;4976105;28;20185;-94
2023/04/26 03:19:29;;;;;;;10.90;9.20;;;11.80;99.90;;;;;;4976120;28;20191;-95
2023/04/26 03:21:56;;;;;;;12.35;9.43;;;11.90;99.90;;;;;;4975966;28;20181;-95
2023/04/26 03:24:22;;;;;;;10.27;9.13;;;11.90;99.90;;;;;;4975676;28;20176;-93
2023/04/26 03:26:48;;;;;;;11.70;8.80;;;12.10;99.90;;;;;;4976034;28;20188;-96
2023/04/26 03:29:15;;;;;;;11.93;9.13;;;12.10;99.90;;;;;;4976020;28;20640;-93
2023/04/26 03:31:40;;;;;;;10.20;9.07;;;12.10;99.90;;;;;;4976433;28;20756;-94
2023/04/26 03:34:06;;;;;;;12.40;9.67;;;12.20;99.90;;;;;;4987007;28;20181;-94
2023/04/26 03:36:33;;;;;;;10.05;8.25;;;12.30;99.90;;;;;;4979704;28;20223;-94
2023/04/26 03:38:59;;;;;;;12.65;9.45;;;12.40;99.90;;;;;;4976246;28;20263;-94
2023/04/26 03:41:25;;;;;;;11.27;8.90;;;12.40;99.90;;;;;;4976742;28;20239;-94
2023/04/26 03:43:50;;;;;;;10.70;9.60;;;12.40;99.90;;;;;;4975645;28;20272;-93
2023/04/26 03:46:16;;;;;;;12.37;9.93;;;12.50;99.90;;;;;;4975875;28;20434;-95
2023/04/26 03:48:42;;;;;;;11.10;9.90;;;12.50;99.90;;;;;;4975472;28;20188;-95
2023/04/26 03:51:08;;;;;;;11.43;9.50;;;12.60;99.90;;;;;;4975071;28;20208;-95
2023/04/26 03:53:33;;;;;;;10.10;8.73;;;12.60;99.90;;;;;;4975138;28;20299;-95
2023/04/26 03:56:00;;;;;;;11.57;8.97;;;12.60;99.90;;;;;;4975417;28;20196;-94
2023/04/26 03:58:25;;;;;;;10.70;9.18;;;12.70;99.90;;;;;;4981907;28;20422;-94
2023/04/26 04:00:51;;;;;;;12.20;10.00;;;12.70;99.90;;;;;;4977814;28;20200;-95
2023/04/26 04:03:17;;;;;;;12.38;10.43;;;12.70;99.90;;;;;;4975606;28;20565;-94
2023/04/26 04:05:43;;;;;;;11.07;9.83;;;12.70;99.90;;;;;;4976064;28;20193;-94
2023/04/26 04:08:08;;;;;;;11.27;10.07;;;12.80;99.90;;;;;;4979743;28;20192;-94
2023/04/26 04:10:36;;;;;;;11.13;9.73;;;12.90;99.90;;;;;;4985965;28;20224;-94
2023/04/26 04:13:02;;;;;;;12.57;9.63;;;13.00;99.90;;;;;;4978880;28;20192;-94
2023/04/26 04:15:28;;;;;;;13.97;9.63;;;13.00;99.90;;;;;;4974670;28;20294;-94
2023/04/26 04:17:54;;;;;;;12.17;9.20;;;13.00;99.90;;;;;;4975131;28;20516;-94
2023/04/26 04:20:20;;;;;;;10.30;9.17;;;13.00;99.90;;;;;;4971244;28;20212;-95
2023/04/26 04:22:46;;;;;;;13.00;10.03;;;13.10;99.90;;;;;;4967588;28;20465;-93
2023/04/26 04:25:12;;;;;;;10.13;9.13;;;13.10;99.90;;;;;;4966075;28;20442;-95
2023/04/26 04:27:41;;;;;;;10.80;9.60;;;13.20;99.90;;;;;;4969317;28;20328;-94
2023/04/26 04:30:08;;;;;;;11.50;10.30;;;13.20;99.90;;;;;;4962623;28;20643;-94
2023/04/26 04:32:38;;;;;;;10.33;9.23;;;13.40;99.90;;;;;;4958787;28;20435;-95
2023/04/26 04:35:04;;;;;;;12.20;9.60;;;13.50;99.90;;;;;;4973239;28;20538;-94
2023/04/26 04:37:32;;;;;;;11.33;9.27;;;13.60;99.90;;;;;;4980260;28;20977;-93
2023/04/26 04:39:58;;;;;;;10.00;9.00;;;13.70;99.90;;;;;;4985097;28;20450;-94
2023/04/26 04:42:26;;;;;;;10.93;9.70;;;13.80;99.90;;;;;;4984671;28;20441;-94
2023/04/26 04:44:52;;;;;;;9.53;8.70;;;13.80;99.90;;;;;;4983487;28;21001;-94
2023/04/26 04:47:17;;;;;;;11.20;10.10;;;13.90;99.90;;;;;;4979953;28;20448;-95
2023/04/26 04:49:44;;;;;;;11.00;9.17;;;13.90;99.90;;;;;;4973640;28;20458;-95
2023/04/26 04:52:10;;;;;;;14.00;9.40;;;13.90;99.90;;;;;;4985570;28;20716;-93
2023/04/26 04:54:36;;;;;;;11.33;10.03;;;13.90;99.90;;;;;;5000479;28;20451;-95
2023/04/26 04:57:02;;;;;;;11.20;8.90;;;13.90;99.90;;;;;;4979601;28;20445;-96
2023/04/26 04:59:28;;;;;;;10.50;8.90;;;13.80;99.90;;;;;;4978513;28;20182;-94
2023/04/26 05:01:54;;;;;;;9.43;8.47;;;13.80;99.90;;;;;;4971083;28;20447;-92
2023/04/26 05:04:20;;;;;;;10.60;9.50;;;13.80;99.90;;;;;;4980128;28;20489;-94
2023/04/26 05:06:46;;;;;;;10.37;9.10;;;13.80;99.90;;;;;;4981358;28;20514;-95
2023/04/26 05:09:12;;;;;;;10.97;9.23;;;13.80;99.90;;;;;;4965319;28;20501;-93
2023/04/26 05:11:38;;;;;;;9.80;8.80;;;13.80;99.90;;;;;;4975394;28;20212;-94
2023/04/26 05:14:04;;;;;;;13.70;11.20;;;13.60;99.90;;;;;;4975553;28;20249;-92
2023/04/26 05:16:29;;;;;;;11.43;10.23;;;13.40;99.90;;;;;;4976638;28;20453;-94
2023/04/26 05:18:55;;;;;;;12.87;9.07;;;13.20;99.90;;;;;;4978369;28;20192;-94
2023/04/26 05:21:22;;;;;;;10.63;9.53;;;13.10;99.90;;;;;;4972016;28;20205;-94
2023/04/26 05:23:48;;;;;;;12.53;9.30;;;13.00;99.90;;;;;;4968511;28;20446;-95
2023/04/26 05:26:15;;;;;;;11.10;9.17;;;13.00;99.90;;;;;;4972910;28;20963;-95
2023/04/26 05:28:41;;;;;;;10.23;9.13;;;13.00;99.90;;;;;;4969299;28;20208;-95
2023/04/26 05:31:08;;;;;;;11.07;8.60;;;13.00;99.90;;;;;;4958241;28;20482;-94
2023/04/26 05:33:34;;;;;;;9.43;8.53;;;13.10;99.90;;;;;;4976591;28;20442;-95
2023/04/26 05:36:01;;;;;;;9.63;8.40;;;13.10;99.90;;;;;;4968685;28;20447;-96
2023/04/26 05:38:27;;;;;;;9.70;8.80;;;13.10;99.90;;;;;;4964061;28;20443;-94
2023/04/26 05:40:52;;;;;;;9.57;8.67;;;13.20;99.90;;;;;;4962832;28;20450;-94
2023/04/26 05:43:18;;;;;;;9.03;8.13;;;13.20;99.90;;;;;;4970230;28;20212;-95
2023/04/26 05:45:52;;;;;;;10.43;8.13;;;13.20;99.90;;;;;;4968081;28;20578;-95
2023/04/26 05:48:19;;;;;;;9.30;8.37;;;13.30;99.90;;;;;;4966831;28;20438;-94
2023/04/26 05:50:45;;;;;;;11.07;8.73;;;13.30;99.90;;;;;;4974288;28;20481;-94
2023/04/26 05:53:10;;;;;;;11.00;7.93;;;13.40;99.90;;;;;;4959846;28;20469;-95
2023/04/26 05:55:36;;;;;;;8.93;8.03;;;13.40;99.90;;;;;;4981791;28;20573;-95
2023/04/26 05:58:02;;;;;;;8.43;7.50;;;13.50;99.90;;;;;;4978869;28;20201;-94
2023/04/26 06:00:28;;;;;;;12.27;8.73;;;13.50;99.90;;;;;;4986313;28;20416;-94
2023/04/26 06:02:53;;;;;;;8.77;7.30;;;13.60;99.90;;;;;;4983311;28;20256;-93
2023/04/26 06:05:19;;;;;;;9.17;7.30;;;13.60;99.90;;;;;;4982292;28;20195;-94
2023/04/26 06:07:45;;;;;;;8.40;7.33;;;13.70;99.90;;;;;;4980153;28;20193;-94
2023/04/26 06:10:12;;;;;;;7.67;6.97;;;13.70;99.90;;;;;;4983696;28;20465;-94
2023/04/26 06:12:38;;;;;;;8.13;7.20;;;13.80;99.90;;;;;;4979559;28;20200;-93
2023/04/26 06:15:04;;;;;;;8.13;7.33;;;13.80;99.90;;;;;;4987562;28;20441;-95
2023/04/26 06:17:30;;;;;;;7.57;6.87;;;13.90;99.90;;;;;;4985857;28;20448;-94
2023/04/26 06:19:56;;;;;;;8.00;7.30;;;13.90;99.90;;;;;;4978563;28;20443;-94
2023/04/26 06:22:25;;;;;;;10.23;7.20;;;13.90;99.90;;;;;;4967197;28;20446;-94
2023/04/26 06:24:50;;;;;;;7.93;7.13;;;13.90;99.90;;;;;;4951981;28;20235;-96
2023/04/26 06:27:16;;;;;;;8.63;7.80;;;13.90;99.90;;;;;;4949948;28;21326;-95
2023/04/26 06:29:42;;;;;;;7.33;6.63;;;13.90;99.90;;;;;;4950724;28;20897;-94
2023/04/26 06:32:08;;;;;;;9.40;6.70;;;13.90;99.90;;;;;;4946885;28;20487;-93
2023/04/26 06:34:35;;;;;;;7.17;6.47;;;14.00;99.90;;;;;;4949790;28;20251;-93
2023/04/26 06:37:00;;;;;;;9.20;7.13;;;14.00;99.90;;;;;;4954591;28;21300;-95
2023/04/26 06:39:26;;;;;;;6.93;6.07;;;14.10;99.90;;;;;;4948909;28;21136;-93
2023/04/26 06:41:52;;;;;;;5.90;5.13;;;14.20;99.90;;;;;;4948355;28;20283;-96
2023/04/26 06:44:18;;;;;;;7.07;5.83;;;14.20;99.90;;;;;;4936520;28;20193;-94
2023/04/26 06:46:44;;;;;;;7.00;5.60;;;14.30;99.90;;;;;;4950548;28;20456;-92
2023/04/26 06:49:10;;;;;;;6.60;5.37;;;14.40;99.90;;;;;;4947781;28;20455;-95
2023/04/26 06:51:36;;;;;;;7.53;5.33;;;14.50;99.90;;;;;;4952896;28;20735;-93
2023/04/26 06:54:02;;;;;;;6.83;5.70;;;14.60;99.90;;;;;;4951946;28;20947;-96
2023/04/26 06:56:28;;;;;;;5.87;4.83;;;14.70;99.90;;;;;;4947247;28;20220;-95
2023/04/26 06:59:02;;;;;;;5.40;4.90;;;14.80;99.90;;;;;;4948460;28;20215;-94
2023/04/26 07:01:32;;;;;;;6.70;4.87;;;14.90;99.90;;;;;;4947705;28;20533;-95
2023/04/26 07:04:00;;;;;;;5.10;4.60;;;15.00;99.90;;;;;;4949982;28;20418;-94
2023/04/26 07:06:26;;;;;;;6.13;5.07;;;15.10;99.90;;;;;;4943387;28;20467;-94
2023/04/26 07:08:52;;;;;;;7.70;5.30;;;15.20;99.90;;;;;;4951385;28;20445;-94
2023/04/26 07:11:17;;;;;;;5.60;5.10;;;15.30;99.90;;;;;;4947471;28;20955;-95
2023/04/26 07:13:44;;;;;;;5.17;4.77;;;15.40;99.90;;;;;;4970670;28;20197;-95
2023/04/26 07:16:09;;;;;;;5.00;4.50;;;15.40;99.90;;;;;;4950999;28;20454;-94
2023/04/26 07:18:35;;;;;;;4.70;4.23;;;15.40;99.90;;;;;;4951297;28;20453;-96
2023/04/26 07:21:01;;;;;;;4.57;4.17;;;15.50;99.90;;;;;;4950434;28;20442;-95
2023/04/26 07:23:28;;;;;;;4.43;4.13;;;15.60;99.90;;;;;;4947962;28;20450;-96
2023/04/26 07:25:55;;;;;;;4.80;4.40;;;15.70;99.90;;;;;;4947550;28;20446;-96
2023/04/26 07:28:23;;;;;;;5.13;4.63;;;15.70;99.90;;;;;;4948973;28;20518;-95
2023/04/26 07:30:49;;;;;;;5.27;4.37;;;15.80;99.90;;;;;;4955347;28;20470;-95
2023/04/26 07:33:15;;;;;;;4.70;4.30;;;15.90;99.90;;;;;;4956871;28;20513;-95
2023/04/26 07:35:42;;;;;;;7.63;4.53;;;15.90;99.90;;;;;;4950680;28;21104;-96
2023/04/26 07:38:08;;;;;;;4.60;4.20;;;15.90;99.90;;;;;;4958987;28;20785;-95
2023/04/26 07:40:35;;;;;;;5.30;4.60;;;16.00;99.90;;;;;;4940178;28;20462;-94
2023/04/26 07:43:01;;;;;;;5.20;4.80;;;16.00;99.90;;;;;;4948314;28;21132;-96
2023/04/26 07:45:27;;;;;;;7.53;4.40;;;16.10;99.90;;;;;;4947848;28;20454;-96
2023/04/26 07:47:53;;;;;;;7.10;4.83;;;16.20;99.90;;;;;;4950189;28;20212;-96
2023/04/26 07:50:19;;;;;;;4.40;4.10;;;16.30;99.90;;;;;;4951271;28;20537;-95
2023/04/26 07:52:45;;;;;;;5.97;4.10;;;16.40;99.90;;;;;;4948294;28;20540;-96
2023/04/26 07:55:14;;;;;;;4.53;4.10;;;16.50;99.90;;;;;;4950055;28;20469;-96
2023/04/26 07:57:41;;;;;;;4.60;4.10;;;16.50;99.90;;;;;;4948048;28;21158;-94
2023/04/26 08:00:09;;;;;;;5.23;4.20;;;16.60;99.90;;;;;;4957313;28;20513;-94
2023/04/26 08:02:35;;;;;;;7.70;4.47;;;16.60;99.90;;;;;;4947277;28;20623;-95
2023/04/26 08:05:02;;;;;;;5.53;4.63;;;16.70;99.90;;;;;;4946892;28;20462;-96
2023/04/26 08:07:28;;;;;;;9.00;5.60;;;16.80;99.90;;;;;;4950766;29;20435;-95
2023/04/26 08:09:55;;;;;;;5.97;4.37;;;16.90;99.90;;;;;;4971426;28;20472;-96
2023/04/26 08:12:21;;;;;;;6.27;4.30;;;16.90;99.90;;;;;;4965829;28;20489;-96
2023/04/26 08:14:46;;;;;;;5.30;3.80;;;17.00;99.90;;;;;;4979067;28;20508;-95
2023/04/26 08:17:13;;;;;;;4.60;3.90;;;17.00;99.90;;;;;;4972063;28;20246;-96
2023/04/26 08:19:40;;;;;;;4.23;3.30;;;17.10;99.90;;;;;;4970780;28;20530;-96
2023/04/26 08:22:06;;;;;;;3.80;3.50;;;17.10;99.90;;;;;;4971226;28;20843;-95
2023/04/26 08:24:35;;;;;;;5.10;4.23;;;17.30;99.50;;;;;;4963695;28;20481;-96
2023/04/26 08:27:01;;;;;;;5.30;3.73;;;17.40;99.50;;;;;;4961621;28;20521;-95
2023/04/26 08:29:27;;;;;;;3.50;3.20;;;17.50;99.30;;;;;;4965855;28;20980;-96
2023/04/26 08:31:53;;;;;;;2.83;2.60;;;17.60;97.60;;;;;;4974327;28;20481;-96
2023/04/26 08:34:19;;;;;;;4.60;3.23;;;17.70;96.50;;;;;;4974231;28;20434;-91
2023/04/26 08:36:45;;;;;;;3.10;2.73;;;17.80;96.20;;;;;;4961774;28;20468;-93
2023/04/26 08:39:11;;;;;;;5.23;3.50;;;17.90;96.20;;;;;;4952520;29;20181;-93
2023/04/26 08:41:53;;;;;;;6.80;3.17;;;18.00;95.30;;;;;;4958864;29;20438;-93
2023/04/26 08:44:23;;;;;;;5.40;2.60;;;18.10;93.80;;;;;;4968661;28;20192;-93
2023/04/26 08:46:55;;;;;;;4.60;2.80;;;18.20;93.80;;;;;;4975831;28;20521;-96
2023/04/26 08:49:40;;;;;;;5.20;2.53;;;18.30;92.60;;;;;;4971047;28;20510;-95
2023/04/26 08:52:09;;;;;;;3.03;2.13;;;18.30;91.10;;;;;;4973005;28;20486;-93
2023/04/26 08:54:40;;;;;;;4.30;2.17;;;18.40;90.90;;;;;;4972381;28;20475;-94
2023/04/26 08:57:09;;;;;;;7.30;2.30;;;18.50;90.30;;;;;;4972920;28;20438;-96
2023/04/26 08:59:36;;;;;;;5.60;2.53;;;18.60;90.70;;;;;;4975409;28;20440;-96
2023/04/26 09:02:08;;;;;;;5.97;3.00;;;18.70;88.90;;;;;;4974008;28;20437;-94
2023/04/26 09:04:35;;;;;;;4.70;3.10;;;18.80;86.20;;;;;;4974911;28;20454;-95
2023/04/26 09:07:03;;;;;;;6.33;3.07;;;18.80;81.80;;;;;;4971529;28;20504;-94
2023/04/26 09:09:41;;;;;;;3.37;2.40;;;18.70;83.20;;;;;;4969107;28;20417;-93
2023/04/26 09:12:07;;;;;;;4.57;2.83;;;18.70;85.00;;;;;;4968971;28;20488;-95
2023/04/26 09:14:34;;;;;;;4.30;2.90;;;18.80;84.60;;;;;;4988242;28;20441;-94
2023/04/26 09:17:00;;;;;;;3.43;3.13;;;18.80;84.80;;;;;;4980044;28;20460;-96
2023/04/26 09:19:41;;;;;;;6.40;3.60;;;18.80;83.40;;;;;;4968011;28;20460;-95
2023/04/26 09:22:08;;;;;;;7.20;3.43;;;18.70;82.80;;;;;;4968224;28;20459;-96
2023/04/26 09:24:49;;;;;;;5.10;3.00;;;18.50;81.60;;;;;;4964303;28;21153;-94
2023/04/26 09:27:19;;;;;;;7.97;3.23;;;18.20;82.80;;;;;;4972093;28;20451;-95
2023/04/26 09:30:22;;;;;;;9.63;3.50;;;18.20;82.50;;;;;;4969583;28;20459;-94
2023/04/26 09:33:03;;;;;;;4.87;2.90;;;18.20;85.00;;;;;;4972836;28;20464;-94
2023/04/26 09:35:30;;;;;;;5.50;2.83;;;18.30;82.40;;;;;;4966771;28;20792;-95
2023/04/26 09:38:08;;;;;;;5.93;2.83;;;18.40;86.40;;;;;;4967048;28;20455;-96
2023/04/26 09:40:49;;;;;;;4.73;3.20;;;18.40;81.00;;;;;;4976832;28;20742;-96
2023/04/26 09:43:19;;;;;;;3.97;2.93;;;18.50;81.90;;;;;;4980707;28;20482;-94
2023/04/26 09:46:02;;;;;;;7.37;3.60;;;18.50;81.80;;;;;;4988209;28;20703;-95
2023/04/26 09:48:34;;;;;;;7.10;3.67;;;18.50;82.10;;;;;;4970231;28;20466;-96
2023/04/26 09:51:03;;;;;;;4.87;3.93;;;18.50;83.30;;;;;;4966108;28;21082;-95
2023/04/26 09:53:37;;;;;;;10.63;4.03;;;18.50;84.30;;;;;;4971891;28;20935;-93
2023/04/26 09:56:09;;;;;;;5.70;3.40;;;18.50;85.30;;;;;;4989750;28;20982;-94
2023/04/26 09:58:57;;;;;;;3.77;3.27;;;18.60;84.90;;;;;;4969518;28;20524;-94
2023/04/26 10:01:23;;;;;;;6.80;3.80;;;18.60;85.60;;;;;;4970719;28;20470;-96
2023/04/26 10:03:50;;;;;;;7.23;3.47;;;18.60;82.90;;;;;;4966818;28;20482;-93
2023/04/26 10:06:16;;;;;;;5.10;3.70;;;18.40;82.30;;;;;;4959363;28;20452;-93
2023/04/26 10:08:42;;;;;;;10.90;4.30;;;18.30;82.30;;;;;;4969342;28;20455;-94
2023/04/26 10:11:12;;;;;;;7.40;3.83;;;18.30;85.00;;;;;;4972379;28;20468;-95
2023/04/26 10:13:40;;;;;;;7.43;4.87;;;18.40;84.80;;;;;;4977179;28;20478;-95
2023/04/26 10:16:08;;;;;;;10.30;4.10;;;18.60;81.90;;;;;;4985048;28;20455;-96
2023/04/26 10:18:35;;;;;;;3.93;3.53;;;18.60;83.00;;;;;;4973490;28;20485;-96
2023/04/26 10:21:26;;;;;;;9.83;4.53;;;18.70;82.30;;;;;;4971013;28;20481;-96
2023/04/26 10:23:52;;;;;;;6.10;3.30;;;18.80;82.90;;;;;;4964348;28;20504;-96
2023/04/26 10:26:56;;;;;;;7.57;3.63;;;18.80;83.10;;;;;;4969384;28;20463;-96
2023/04/26 10:29:48;;;;;;;9.93;3.80;;;18.90;80.80;;;;;;4972169;28;20445;-96
2023/04/26 10:32:17;;;;;;;6.70;3.27;;;18.90;83.00;;;;;;4972034;28;20519;-95
2023/04/26 10:34:43;;;;;;;6.30;4.40;;;18.80;79.50;;;;;;4977579;28;20508;-96
2023/04/26 10:37:17;;;;;;;30.17;6.57;;;18.70;83.50;;;;;;4980526;28;20943;-96
2023/04/26 10:39:44;;;;;;;8.37;3.80;;;18.70;82.90;;;;;;4972292;28;20693;-95
2023/04/26 10:42:23;;;;;;;5.30;3.50;;;18.80;80.40;;;;;;4976700;28;20482;-93
2023/04/26 10:44:59;;;;;;;6.03;3.40;;;18.80;80.30;;;;;;4975024;28;20455;-95
2023/04/26 10:47:26;;;;;;;4.50;3.37;;;18.70;77.90;;;;;;4970828;28;20505;-96
2023/04/26 10:50:00;;;;;;;6.53;2.97;;;18.60;79.60;;;;;;4964242;28;20857;-96
2023/04/26 10:52:26;;;;;;;4.80;3.03;;;18.60;80.90;;;;;;4980142;28;20506;-94
2023/04/26 10:54:58;;;;;;;3.93;2.90;;;18.60;79.20;;;;;;4975009;28;20459;-93
2023/04/26 10:57:49;;;;;;;5.30;3.40;;;18.60;81.60;;;;;;4963292;28;20448;-94
2023/04/26 11:00:17;;;;;;;5.67;4.00;;;18.70;79.80;;;;;;4972469;28;20446;-96
2023/04/26 11:02:52;;;;;;;5.43;3.20;;;18.70;80.80;;;;;;4973463;28;20448;-94
2023/04/26 11:05:42;;;;;;;4.33;3.33;;;18.70;83.00;;;;;;4963051;28;20454;-95
2023/04/26 11:08:15;;;;;;;4.30;3.10;;;18.80;81.20;;;;;;4970021;28;20440;-96
2023/04/26 11:10:42;;;;;;;5.70;3.13;;;18.80;79.70;;;;;;4977109;28;21107;-95
2023/04/26 11:13:08;;;;;;;12.57;3.57;;;18.90;81.60;;;;;;4983887;28;20464;-94
2023/04/26 11:15:34;;;;;;;7.13;3.97;;;19.00;80.40;;;;;;4978909;28;20501;-94
2023/04/26 11:18:04;;;;;;;4.83;3.50;;;18.90;77.80;;;;;;4983365;28;20189;-94
2023/04/26 11:20:33;;;;;;;4.53;3.50;;;18.80;79.70;;;;;;4976601;28;20460;-94
2023/04/26 11:23:02;;;;;;;6.30;3.83;;;18.80;80.30;;;;;;4982636;28;20446;-94
2023/04/26 11:25:31;;;;;;;7.33;3.67;;;19.00;81.10;;;;;;4971723;28;20435;-93
2023/04/26 11:28:02;;;;;;;6.40;3.80;;;19.10;79.50;;;;;;4980212;28;20433;-95
2023/04/26 11:30:30;;;;;;;9.37;3.60;;;19.10;78.60;;;;;;4967736;28;20464;-94
2023/04/26 11:32:59;;;;;;;10.43;3.63;;;19.20;79.40;;;;;;4978032;28;20829;-96
2023/04/26 11:35:25;;;;;;;7.53;3.23;;;19.10;79.90;;;;;;4974664;28;20896;-93
2023/04/26 11:37:51;;;;;;;7.27;3.33;;;19.10;77.90;;;;;;4970721;28;20444;-95
2023/04/26 11:40:18;;;;;;;6.93;4.00;;;19.10;79.90;;;;;;4967015;28;20836;-96
2023/04/26 11:42:44;;;;;;;4.13;3.30;;;19.10;79.50;;;;;;4968295;28;20440;-92
2023/04/26 11:45:10;;;;;;;8.20;3.77;;;19.20;78.30;;;;;;4977695;28;20441;-94
2023/04/26 11:47:36;;;;;;;6.30;3.60;;;19.20;77.80;;;;;;4976036;28;20451;-94
2023/04/26 11:50:03;;;;;;;5.33;3.30;;;19.20;78.10;;;;;;4972616;28;20450;-94
2023/04/26 11:52:29;;;;;;;4.10;3.27;;;19.10;78.00;;;;;;4977645;28;20854;-94
2023/04/26 11:55:06;;;;;;;7.27;2.80;;;19.00;75.80;;;;;;4978617;28;20499;-94
2023/04/26 11:57:33;;;;;;;25.13;5.20;;;19.00;77.60;;;;;;4971084;28;20549;-94
2023/04/26 12:00:12;;;;;;;5.57;3.17;;;19.00;78.80;;;;;;4977006;28;20482;-94
2023/04/26 12:02:48;;;;;;;10.73;3.20;;;19.00;76.10;;;;;;4969855;28;20468;-94
2023/04/26 12:05:25;;;;;;;5.70;3.50;;;18.90;78.10;;;;;;4975900;28;20491;-94
2023/04/26 12:07:59;;;;;;;5.63;2.80;;;19.00;77.30;;;;;;4967693;28;20448;-94
2023/04/26 12:10:27;;;;;;;6.40;3.20;;;19.00;76.80;;;;;;4968905;28;20452;-95
2023/04/26 12:12:58;;;;;;;6.70;3.17;;;19.00;79.00;;;;;;4976079;28;20435;-95
2023/04/26 12:15:34;;;;;;;8.93;3.17;;;19.00;78.60;;;;;;4978701;28;20586;-95
2023/04/26 12:18:07;;;;;;;7.70;3.20;;;19.10;81.50;;;;;;4977787;28;20470;-96
2023/04/26 12:20:35;;;;;;;6.23;3.10;;;19.20;80.50;;;;;;4973377;28;20474;-94
2023/04/26 12:23:05;;;;;;;11.07;2.90;;;19.30;75.80;;;;;;4967056;28;20561;-95
2023/04/26 12:25:32;;;;;;;6.13;3.03;;;19.40;76.00;;;;;;4974460;28;20478;-94
2023/04/26 12:28:00;;;;;;;3.40;2.70;;;19.30;75.30;;;;;;4975653;28;20445;-94
2023/04/26 12:30:30;;;;;;;10.00;3.50;;;19.30;76.00;;;;;;4977542;28;20462;-96
2023/04/26 12:32:57;;;;;;;3.23;2.50;;;19.30;75.40;;;;;;4974614;28;20951;-94
2023/04/26 12:35:29;;;;;;;3.80;3.00;;;19.20;76.30;;;;;;4986973;28;20444;-96
2023/04/26 12:37:55;;;;;;;6.57;3.00;;;19.10;75.50;;;;;;4975298;28;20849;-96
2023/04/26 12:40:22;;;;;;;6.20;3.73;;;19.10;77.80;;;;;;4985088;28;20478;-94
2023/04/26 12:42:57;;;;;;;6.47;3.00;;;19.10;76.80;;;;;;4981973;28;20450;-96
2023/04/26 12:45:25;;;;;;;11.27;3.40;;;19.20;76.70;;;;;;4976913;28;20478;-96
2023/04/26 12:48:07;;;;;;;5.40;3.10;;;19.10;75.80;;;;;;4969898;28;20448;-96